createdAt,value
2018-09-03T00:01:06.974Z,21.90
2018-09-03T00:03:40.210Z,21.07
2018-09-03T00:06:13.417Z,21.63
2018-09-03T00:08:46.620Z,22.57
2018-09-03T00:11:19.779Z,21.07
2018-09-03T00:13:53.069Z,21.17
2018-09-03T00:16:26.433Z,21.53
2018-09-03T00:18:59.675Z,20.47
2018-09-03T00:21:32.994Z,20.70
2018-09-03T00:24:06.563Z,19.67
2018-09-03T00:26:39.853Z,20.03
2018-09-03T00:29:13.141Z,19.80
2018-09-03T00:31:51.868Z,18.47
2018-09-03T00:34:30.645Z,18.77
2018-09-03T00:37:09.336Z,19.80
2018-09-03T00:40:52.089Z,18.30
2018-09-03T00:43:30.855Z,17.10
2018-09-03T00:47:07.804Z,18.33
2018-09-03T00:49:41.249Z,17.93
2018-09-03T00:52:14.532Z,18.73
2018-09-03T00:54:47.985Z,18.47
2018-09-03T00:57:21.298Z,17.63
2018-09-03T00:59:54.520Z,17.97
2018-09-03T01:02:27.867Z,18.10
2018-09-03T01:05:01.121Z,18.50
2018-09-03T01:07:34.396Z,18.67
2018-09-03T01:10:07.696Z,18.43
2018-09-03T01:12:40.988Z,18.67
2018-09-03T01:15:14.295Z,18.07
2018-09-03T01:17:47.662Z,20.17
2018-09-03T01:20:20.970Z,18.10
2018-09-03T01:22:54.267Z,18.10
2018-09-03T01:25:27.672Z,19.00
2018-09-03T01:28:00.957Z,18.27
2018-09-03T01:30:34.264Z,18.77
2018-09-03T01:33:07.732Z,17.97
2018-09-03T01:35:40.991Z,17.97
2018-09-03T01:38:14.300Z,19.10
2018-09-03T01:40:47.550Z,18.90
2018-09-03T01:43:20.905Z,18.77
2018-09-03T01:45:54.242Z,17.97
2018-09-03T01:48:27.515Z,17.80
2018-09-03T01:51:02.142Z,16.57
2018-09-03T01:53:35.444Z,16.80
2018-09-03T01:56:08.933Z,18.40
2018-09-03T01:58:42.224Z,18.70
2018-09-03T02:01:15.522Z,17.90
2018-09-03T02:03:48.792Z,18.33
2018-09-03T02:06:22.124Z,19.37
2018-09-03T02:08:55.405Z,18.10
2018-09-03T02:11:28.711Z,17.00
2018-09-03T02:14:02.000Z,17.53
2018-09-03T02:16:35.905Z,18.17
2018-09-03T02:19:09.328Z,18.93
2018-09-03T02:21:42.592Z,19.77
2018-09-03T02:24:15.895Z,18.33
2018-09-03T02:26:49.177Z,18.17
2018-09-03T02:29:22.432Z,19.17
2018-09-03T02:31:55.703Z,19.20
2018-09-03T02:34:29.051Z,20.20
2018-09-03T02:37:02.349Z,20.17
2018-09-03T02:39:35.651Z,19.47
2018-09-03T02:42:08.895Z,19.50
2018-09-03T02:44:42.176Z,21.20
2018-09-03T02:47:15.442Z,20.40
2018-09-03T02:49:48.825Z,19.70
2018-09-03T02:52:22.113Z,19.13
2018-09-03T02:55:02.075Z,20.73
2018-09-03T02:57:35.330Z,22.13
2018-09-03T03:00:08.594Z,20.30
2018-09-03T03:02:41.949Z,20.50
2018-09-03T03:05:15.250Z,22.07
2018-09-03T03:07:48.544Z,20.90
2018-09-03T03:10:21.837Z,22.60
2018-09-03T03:12:55.105Z,22.93
2018-09-03T03:15:28.542Z,23.50
2018-09-03T03:18:01.786Z,21.67
2018-09-03T03:20:35.088Z,23.37
2018-09-03T03:23:08.382Z,23.97
2018-09-03T03:25:41.672Z,23.70
2018-09-03T03:28:14.948Z,22.60
2018-09-03T03:30:48.384Z,23.67
2018-09-03T03:33:21.689Z,22.63
2018-09-03T03:35:54.979Z,23.53
2018-09-03T03:38:28.275Z,21.97
2018-09-03T03:41:01.582Z,25.10
2018-09-03T03:43:34.803Z,23.23
2018-09-03T03:46:08.171Z,23.23
2018-09-03T03:48:41.526Z,23.00
2018-09-03T03:51:14.889Z,23.27
2018-09-03T03:53:48.249Z,24.37
2018-09-03T03:56:21.542Z,23.43
2018-09-03T03:58:54.837Z,22.97
2018-09-03T04:01:28.145Z,22.97
2018-09-03T04:04:01.415Z,23.77
2018-09-03T04:06:34.715Z,24.33
2018-09-03T04:09:09.439Z,21.00
2018-09-03T04:11:42.670Z,20.80
2018-09-03T04:14:16.065Z,21.50
2018-09-03T04:16:49.426Z,19.30
2018-09-03T04:19:22.718Z,19.53
2018-09-03T04:21:56.014Z,18.33
2018-09-03T04:24:29.220Z,20.47
2018-09-03T04:27:02.567Z,20.27
2018-09-03T04:29:35.845Z,20.37
2018-09-03T04:32:09.134Z,19.73
2018-09-03T04:34:42.529Z,19.43
2018-09-03T04:37:15.807Z,21.00
2018-09-03T04:39:49.190Z,20.20
2018-09-03T04:42:22.466Z,21.30
2018-09-03T04:44:55.863Z,20.60
2018-09-03T04:47:29.186Z,21.60
2018-09-03T04:50:02.497Z,21.73
2018-09-03T04:52:35.841Z,22.43
2018-09-03T04:55:09.133Z,21.57
2018-09-03T04:57:42.413Z,22.77
2018-09-03T05:00:16.125Z,23.23
2018-09-03T05:02:49.428Z,22.90
2018-09-03T05:05:22.983Z,22.57
2018-09-03T05:07:56.228Z,21.53
2018-09-03T05:10:29.506Z,23.97
2018-09-03T05:13:02.778Z,22.47
2018-09-03T05:15:36.051Z,21.63
2018-09-03T05:18:09.403Z,24.07
2018-09-03T05:20:42.812Z,24.30
2018-09-03T05:23:16.156Z,23.30
2018-09-03T05:25:49.575Z,24.23
2018-09-03T05:28:22.989Z,22.70
2018-09-03T05:30:56.369Z,23.27
2018-09-03T05:33:29.776Z,22.07
2018-09-03T05:36:03.121Z,22.77
2018-09-03T05:38:36.617Z,23.27
2018-09-03T05:41:10.032Z,21.90
2018-09-03T05:43:43.653Z,22.43
2018-09-03T05:46:16.867Z,21.87
2018-09-03T05:48:50.259Z,22.20
2018-09-03T05:51:23.578Z,22.83
2018-09-03T05:53:56.851Z,22.40
2018-09-03T05:56:30.145Z,23.43
2018-09-03T05:59:03.673Z,25.07
2018-09-03T06:01:37.561Z,24.33
2018-09-03T06:04:10.961Z,23.50
2018-09-03T06:06:44.240Z,22.97
2018-09-03T06:09:17.637Z,23.77
2018-09-03T06:11:51.104Z,23.43
2018-09-03T06:14:24.460Z,23.17
2018-09-03T06:16:57.725Z,23.07
2018-09-03T06:19:31.025Z,23.00
2018-09-03T06:22:04.414Z,23.43
2018-09-03T06:24:37.687Z,24.03
2018-09-03T06:27:11.270Z,24.60
2018-09-03T06:29:44.692Z,26.40
2018-09-03T06:32:18.002Z,24.50
2018-09-03T06:34:51.274Z,23.60
2018-09-03T06:37:24.606Z,22.37
2018-09-03T06:39:57.965Z,23.33
2018-09-03T06:42:31.281Z,23.63
2018-09-03T06:45:04.779Z,25.03
2018-09-03T06:47:38.094Z,34.33
2018-09-03T06:50:11.382Z,28.97
2018-09-03T06:52:44.781Z,25.73
2018-09-03T06:55:18.177Z,25.57
2018-09-03T06:57:51.516Z,26.60
2018-09-03T07:00:24.865Z,24.77
2018-09-03T07:02:58.198Z,25.03
2018-09-03T07:05:31.537Z,24.13
2018-09-03T07:08:04.848Z,24.30
2018-09-03T07:10:38.127Z,24.97
2018-09-03T07:13:11.425Z,23.50
2018-09-03T07:15:44.688Z,22.70
2018-09-03T07:18:18.010Z,23.37
2018-09-03T07:20:51.314Z,23.80
2018-09-03T07:23:24.703Z,24.10
2018-09-03T07:25:58.048Z,24.53
2018-09-03T07:28:31.374Z,24.93
2018-09-03T07:31:04.684Z,23.17
2018-09-03T07:33:37.940Z,22.27
2018-09-03T07:36:11.182Z,21.00
2018-09-03T07:38:44.563Z,20.13
2018-09-03T07:41:17.966Z,21.43
2018-09-03T07:43:51.235Z,20.70
2018-09-03T07:46:24.457Z,20.83
2018-09-03T07:48:57.776Z,20.73
2018-09-03T07:51:31.031Z,20.17
2018-09-03T07:54:04.446Z,19.33
2018-09-03T07:56:37.737Z,19.60
2018-09-03T07:59:11.107Z,19.20
2018-09-03T08:01:44.523Z,19.13
2018-09-03T08:04:17.824Z,19.97
2018-09-03T08:06:51.139Z,20.87
2018-09-03T08:09:24.458Z,19.13
2018-09-03T08:11:57.799Z,18.50
2018-09-03T08:14:31.182Z,18.40
2018-09-03T08:17:04.490Z,19.03
2018-09-03T08:19:37.822Z,18.20
2018-09-03T08:22:11.083Z,18.93
2018-09-03T08:24:44.371Z,18.13
2018-09-03T08:27:17.679Z,18.03
2018-09-03T08:29:51.026Z,16.77
2018-09-03T08:32:24.429Z,16.90
2018-09-03T08:34:57.753Z,17.90
2018-09-03T08:37:31.146Z,17.67
2018-09-03T08:40:04.582Z,16.83
2018-09-03T08:42:37.990Z,16.20
2018-09-03T08:45:11.388Z,16.47
2018-09-03T08:47:44.736Z,16.53
2018-09-03T08:50:18.045Z,17.07
2018-09-03T08:52:51.364Z,15.70
2018-09-03T08:55:24.631Z,16.40
2018-09-03T08:57:58.020Z,16.13
2018-09-03T09:00:31.567Z,16.27
2018-09-03T09:03:07.572Z,16.23
2018-09-03T09:05:40.904Z,15.90
2018-09-03T09:08:14.402Z,16.53
2018-09-03T09:10:47.817Z,16.37
2018-09-03T09:13:21.126Z,16.07
2018-09-03T09:15:54.368Z,15.90
2018-09-03T09:18:27.651Z,17.20
2018-09-03T09:21:00.968Z,15.40
2018-09-03T09:23:34.446Z,16.43
2018-09-03T09:26:07.784Z,16.90
2018-09-03T09:28:41.126Z,16.10
2018-09-03T09:31:14.430Z,16.00
2018-09-03T09:33:47.838Z,15.83
2018-09-03T09:36:21.111Z,16.20
2018-09-03T09:38:54.405Z,15.63
2018-09-03T09:41:27.809Z,14.80
2018-09-03T09:44:01.943Z,16.57
2018-09-03T09:46:35.327Z,15.57
2018-09-03T09:49:08.768Z,16.30
2018-09-03T09:51:42.388Z,17.23
2018-09-03T09:54:16.015Z,17.20
2018-09-03T09:56:49.536Z,16.43
2018-09-03T09:59:22.917Z,18.30
2018-09-03T10:01:56.313Z,17.47
2018-09-03T10:04:29.691Z,17.30
2018-09-03T10:07:03.071Z,17.30
2018-09-03T10:09:36.410Z,17.13
2018-09-03T10:12:09.703Z,17.73
2018-09-03T10:14:43.025Z,16.87
2018-09-03T10:17:16.270Z,16.07
2018-09-03T10:19:49.605Z,15.60
2018-09-03T10:22:22.918Z,15.70
2018-09-03T10:24:56.246Z,15.37
2018-09-03T10:27:29.576Z,16.23
2018-09-03T10:30:02.777Z,15.23
2018-09-03T10:32:36.087Z,17.00
2018-09-03T10:35:09.379Z,16.77
2018-09-03T10:37:42.766Z,16.83
2018-09-03T10:40:15.945Z,18.17
2018-09-03T10:42:49.190Z,18.70
2018-09-03T10:45:22.516Z,19.80
2018-09-03T10:47:55.706Z,19.07
2018-09-03T10:50:29.053Z,20.27
2018-09-03T10:53:02.324Z,18.43
2018-09-03T10:55:35.655Z,18.10
2018-09-03T10:58:09.289Z,17.73
2018-09-03T11:00:42.596Z,18.10
2018-09-03T11:03:15.848Z,17.43
2018-09-03T11:05:49.125Z,17.40
2018-09-03T11:08:22.388Z,17.10
2018-09-03T11:10:55.637Z,16.67
2018-09-03T11:13:28.825Z,16.33
2018-09-03T11:16:02.058Z,17.23
2018-09-03T11:18:35.381Z,14.70
2018-09-03T11:21:08.608Z,15.77
2018-09-03T11:23:41.758Z,15.50
2018-09-03T11:26:14.996Z,15.93
2018-09-03T11:28:48.178Z,16.63
2018-09-03T11:31:21.520Z,15.90
2018-09-03T11:33:54.689Z,15.60
2018-09-03T11:36:27.874Z,15.37
2018-09-03T11:39:01.026Z,15.57
2018-09-03T11:41:34.753Z,15.17
2018-09-03T11:44:14.795Z,16.93
2018-09-03T11:46:48.038Z,16.10
2018-09-03T11:49:21.179Z,15.57
2018-09-03T11:51:54.361Z,17.80
2018-09-03T11:54:27.520Z,16.30
2018-09-03T11:57:00.685Z,17.93
2018-09-03T11:59:33.851Z,18.10
2018-09-03T12:02:07.077Z,18.00
2018-09-03T12:04:40.149Z,17.33
2018-09-03T12:07:13.309Z,17.50
2018-09-03T12:09:46.465Z,17.80
2018-09-03T12:12:19.989Z,18.00
2018-09-03T12:14:56.978Z,17.13
2018-09-03T12:17:30.171Z,17.60
2018-09-03T12:20:04.143Z,17.53
2018-09-03T12:22:37.330Z,15.73
2018-09-03T12:25:10.507Z,15.97
2018-09-03T12:27:43.748Z,16.10
2018-09-03T12:30:16.917Z,15.60
2018-09-03T12:32:50.073Z,15.20
2018-09-03T12:35:23.247Z,15.57
2018-09-03T12:37:56.495Z,16.37
2018-09-03T12:40:29.695Z,14.87
2018-09-03T12:43:02.879Z,14.43
2018-09-03T12:45:41.451Z,14.17
2018-09-03T12:48:14.634Z,13.53
2018-09-03T12:50:47.801Z,13.13
2018-09-03T12:53:21.007Z,13.87
2018-09-03T12:55:54.219Z,13.27
2018-09-03T13:01:07.061Z,12.83
2018-09-03T13:03:40.253Z,12.77
2018-09-03T13:06:13.511Z,12.53
2018-09-03T13:08:46.651Z,12.87
2018-09-03T13:11:19.819Z,12.23
2018-09-03T13:13:52.981Z,12.50
2018-09-03T13:16:26.231Z,11.63
2018-09-03T13:18:59.381Z,11.53
2018-09-03T13:24:11.995Z,11.40
2018-09-03T13:26:45.165Z,11.40
2018-09-03T13:29:18.355Z,11.87
2018-09-03T13:31:51.651Z,11.80
2018-09-03T13:34:24.815Z,11.30
2018-09-03T13:36:57.938Z,12.27
2018-09-03T13:39:31.131Z,11.83
2018-09-03T13:42:04.360Z,11.50
2018-09-03T13:44:37.521Z,11.87
2018-09-03T13:47:10.686Z,12.07
2018-09-03T13:49:43.955Z,12.30
2018-09-03T13:52:17.415Z,11.67
2018-09-03T13:54:50.650Z,11.00
2018-09-03T13:57:23.757Z,11.17
2018-09-03T13:59:56.921Z,11.63
2018-09-03T14:02:30.078Z,10.80
2018-09-03T14:05:03.290Z,10.70
2018-09-03T14:07:36.474Z,11.10
2018-09-03T14:10:09.690Z,11.47
2018-09-03T14:12:43.050Z,12.03
2018-09-03T14:15:16.217Z,11.60
2018-09-03T14:17:49.374Z,12.07
2018-09-03T14:20:22.598Z,12.30
2018-09-03T14:22:55.741Z,11.53
2018-09-03T14:25:29.025Z,11.83
2018-09-03T14:28:02.166Z,11.63
2018-09-03T14:30:35.389Z,11.40
2018-09-03T14:33:08.530Z,11.27
2018-09-03T14:35:41.729Z,12.20
2018-09-03T14:38:14.876Z,11.17
2018-09-03T14:40:48.060Z,11.40
2018-09-03T14:43:21.210Z,11.43
2018-09-03T14:45:54.452Z,11.20
2018-09-03T14:48:27.607Z,11.20
2018-09-03T14:51:00.873Z,13.03
2018-09-03T14:53:34.150Z,10.60
2018-09-03T14:56:07.310Z,11.80
2018-09-03T14:58:40.503Z,11.93
2018-09-03T15:01:13.743Z,11.10
2018-09-03T15:03:46.893Z,11.30
2018-09-03T15:06:20.110Z,10.50
2018-09-03T15:15:45.202Z,11.37
2018-09-03T15:18:18.337Z,11.50
2018-09-03T15:20:51.521Z,11.30
2018-09-03T15:23:24.777Z,10.90
2018-09-03T15:25:57.954Z,12.70
2018-09-03T15:28:31.126Z,11.67
2018-09-03T15:31:04.286Z,10.20
2018-09-03T15:33:37.443Z,11.20
2018-09-03T15:36:10.641Z,10.73
2018-09-03T15:38:43.763Z,11.53
2018-09-03T15:41:16.959Z,11.57
2018-09-03T15:43:50.111Z,11.57
2018-09-03T15:46:23.267Z,11.07
2018-09-03T15:48:56.449Z,11.33
2018-09-03T15:51:29.613Z,11.17
2018-09-03T15:54:02.839Z,11.17
2018-09-03T15:56:35.958Z,11.43
2018-09-03T15:59:09.464Z,11.27
2018-09-03T16:01:42.650Z,11.00
2018-09-03T16:04:15.803Z,10.97
2018-09-03T16:06:49.002Z,10.07
2018-09-03T16:09:22.141Z,11.03
2018-09-03T16:11:55.349Z,11.17
2018-09-03T16:14:28.496Z,11.23
2018-09-03T16:17:02.076Z,11.10
2018-09-03T16:19:35.238Z,11.90
2018-09-03T16:22:08.938Z,11.43
2018-09-03T16:24:42.145Z,10.80
2018-09-03T16:27:15.339Z,10.60
2018-09-03T16:29:48.490Z,11.03
2018-09-03T16:32:21.803Z,11.00
2018-09-03T16:34:54.956Z,11.00
2018-09-03T16:37:28.104Z,9.63
2018-09-03T16:40:01.262Z,10.30
2018-09-03T16:42:34.449Z,10.57
2018-09-03T16:45:07.613Z,11.67
2018-09-03T16:47:40.771Z,10.90
2018-09-03T16:50:14.135Z,10.67
2018-09-03T16:52:47.407Z,10.70
2018-09-03T16:55:20.679Z,11.67
2018-09-03T16:57:53.782Z,11.53
2018-09-03T17:00:26.959Z,11.30
2018-09-03T17:03:00.151Z,11.33
2018-09-03T17:05:33.301Z,12.30
2018-09-03T17:08:06.581Z,11.93
2018-09-03T17:10:39.618Z,12.80
2018-09-03T17:13:12.807Z,12.03
2018-09-03T17:15:45.966Z,12.07
2018-09-03T17:18:19.144Z,12.20
2018-09-03T17:20:52.317Z,11.67
2018-09-03T17:23:25.504Z,11.50
2018-09-03T17:25:58.665Z,12.27
2018-09-03T17:28:31.886Z,12.07
2018-09-03T17:31:05.693Z,13.30
2018-09-03T17:33:38.894Z,16.60
2018-09-03T17:36:12.150Z,13.60
2018-09-03T17:38:45.294Z,14.23
2018-09-03T17:41:18.438Z,14.67
2018-09-03T17:43:51.675Z,14.43
2018-09-03T17:46:24.839Z,14.60
2018-09-03T17:48:58.005Z,15.20
2018-09-03T17:51:31.272Z,14.80
2018-09-03T17:54:04.453Z,14.13
2018-09-03T17:56:37.656Z,14.57
2018-09-03T17:59:10.857Z,14.43
2018-09-03T18:01:44.022Z,14.67
2018-09-03T18:04:17.271Z,15.83
2018-09-03T18:06:50.419Z,16.43
2018-09-03T18:09:23.636Z,17.57
2018-09-03T18:11:56.758Z,20.93
2018-09-03T18:14:29.944Z,18.60
2018-09-03T18:17:03.177Z,19.60
2018-09-03T18:19:36.380Z,17.77
2018-09-03T18:22:09.560Z,18.10
2018-09-03T18:24:42.861Z,16.60
2018-09-03T18:27:16.025Z,20.33
2018-09-03T18:29:49.214Z,20.50
2018-09-03T18:32:22.379Z,22.60
2018-09-03T18:34:55.546Z,20.43
2018-09-03T18:37:28.702Z,21.77
2018-09-03T18:40:01.900Z,19.90
2018-09-03T18:42:35.067Z,21.13
2018-09-03T18:45:08.757Z,17.47
2018-09-03T18:47:41.924Z,17.60
2018-09-03T18:50:15.218Z,17.43
2018-09-03T18:52:48.365Z,18.00
2018-09-03T18:55:21.619Z,19.33
2018-09-03T18:57:54.759Z,19.67
2018-09-03T19:00:27.941Z,17.43
2018-09-03T19:03:01.066Z,19.10
2018-09-03T19:05:34.212Z,18.23
2018-09-03T19:08:07.369Z,18.40
2018-09-03T19:10:40.539Z,18.57
2018-09-03T19:13:13.686Z,18.60
2018-09-03T19:15:46.874Z,18.50
2018-09-03T19:18:20.034Z,18.57
2018-09-03T19:20:53.188Z,18.17
2018-09-03T19:23:26.449Z,18.93
2018-09-03T19:25:59.684Z,19.07
2018-09-03T19:28:32.889Z,18.03
2018-09-03T19:31:06.062Z,20.03
2018-09-03T19:33:39.264Z,20.60
2018-09-03T19:36:12.456Z,19.57
2018-09-03T19:38:45.598Z,17.90
2018-09-03T19:41:18.755Z,17.87
2018-09-03T19:43:51.932Z,19.27
2018-09-03T19:46:25.113Z,19.43
2018-09-03T19:48:58.266Z,20.70
2018-09-03T19:51:31.449Z,19.63
2018-09-03T19:54:04.693Z,14.70
2018-09-03T19:56:37.866Z,18.30
2018-09-03T19:59:11.013Z,17.43
2018-09-03T20:01:44.293Z,21.30
2018-09-03T20:04:17.542Z,21.77
2018-09-03T20:06:50.738Z,18.73
2018-09-03T20:09:23.900Z,17.43
2018-09-03T20:11:57.095Z,18.83
2018-09-03T20:14:30.325Z,18.33
2018-09-03T20:17:03.624Z,19.93
2018-09-03T20:19:36.742Z,19.47
2018-09-03T20:22:13.398Z,20.27
2018-09-03T20:24:46.648Z,21.37
2018-09-03T20:27:19.803Z,20.53
2018-09-03T20:29:53.046Z,22.37
2018-09-03T20:32:26.237Z,21.37
2018-09-03T20:34:59.385Z,21.30
2018-09-03T20:37:32.569Z,23.07
2018-09-03T20:40:06.066Z,23.30
2018-09-03T20:42:39.231Z,21.90
2018-09-03T20:45:12.423Z,22.73
2018-09-03T20:47:45.731Z,23.77
2018-09-03T20:50:18.857Z,22.00
2018-09-03T20:52:52.022Z,19.83
2018-09-03T20:55:25.187Z,22.00
2018-09-03T20:57:58.373Z,21.90
2018-09-03T21:00:31.577Z,23.33
2018-09-03T21:03:04.758Z,22.43
2018-09-03T21:05:37.953Z,24.10
2018-09-03T21:08:11.106Z,23.37
2018-09-03T21:10:44.271Z,25.20
2018-09-03T21:13:17.517Z,22.40
2018-09-03T21:15:52.557Z,23.53
2018-09-03T21:18:25.738Z,24.00
2018-09-03T21:20:58.934Z,23.37
2018-09-03T21:23:32.443Z,21.97
2018-09-03T21:26:12.562Z,22.20
2018-09-03T21:28:45.746Z,22.50
2018-09-03T21:31:18.966Z,22.33
2018-09-03T21:33:52.183Z,24.47
2018-09-03T21:36:25.317Z,23.97
2018-09-03T21:38:58.541Z,24.07
2018-09-03T21:41:31.637Z,25.60
2018-09-03T21:44:04.845Z,23.13
2018-09-03T21:46:38.016Z,25.47
2018-09-03T21:49:11.273Z,24.20
2018-09-03T21:51:44.567Z,24.63
2018-09-03T21:54:17.740Z,25.43
2018-09-03T21:56:51.143Z,24.63
2018-09-03T21:59:24.324Z,23.73
2018-09-03T22:01:57.571Z,25.17
2018-09-03T22:04:30.807Z,22.37
2018-09-03T22:07:04.101Z,27.00
2018-09-03T22:09:37.278Z,24.67
2018-09-03T22:12:10.521Z,27.30
2018-09-03T22:14:43.705Z,27.13
2018-09-03T22:17:16.896Z,24.70
2018-09-03T22:19:50.098Z,23.17
2018-09-03T22:22:23.343Z,26.33
2018-09-03T22:24:56.564Z,25.77
2018-09-03T22:27:29.726Z,26.27
2018-09-03T22:30:02.901Z,25.00
2018-09-03T22:32:36.058Z,24.57
2018-09-03T22:35:09.266Z,27.63
2018-09-03T22:37:42.455Z,25.50
2018-09-03T22:40:15.639Z,25.07
2018-09-03T22:42:49.442Z,24.27
2018-09-03T22:45:22.599Z,23.37
2018-09-03T22:47:55.788Z,26.77
2018-09-03T22:50:29.342Z,26.53
2018-09-03T22:53:02.489Z,27.40
2018-09-03T22:55:35.670Z,28.10
2018-09-03T22:58:08.899Z,27.93
2018-09-03T23:00:42.186Z,27.23
2018-09-03T23:03:15.401Z,28.43
2018-09-03T23:05:48.670Z,30.73
2018-09-03T23:08:21.737Z,28.60
2018-09-03T23:10:54.950Z,25.77
2018-09-03T23:13:28.527Z,28.47
2018-09-03T23:16:01.693Z,30.03
2018-09-03T23:18:34.939Z,26.87
2018-09-03T23:21:08.113Z,26.23
2018-09-03T23:23:41.319Z,24.47
2018-09-03T23:26:14.489Z,29.33
2018-09-03T23:28:47.640Z,22.90
2018-09-03T23:31:20.811Z,24.03
2018-09-03T23:33:54.036Z,22.40
2018-09-03T23:36:27.202Z,22.43
2018-09-03T23:39:00.360Z,24.03
2018-09-03T23:41:33.545Z,21.60
2018-09-03T23:44:06.826Z,20.70
2018-09-03T23:46:40.141Z,23.57
2018-09-03T23:49:13.294Z,22.63
2018-09-03T23:51:48.138Z,24.83
2018-09-03T23:54:21.289Z,27.80
2018-09-03T23:56:54.650Z,30.97
2018-09-03T23:59:27.880Z,25.30
